Time;durP1;ratioP1;P1;durP2;ratioP2;P2;SDS_P1;SDS_P2;PMS_P1;PMS_P2;Temp;Humidity;BMP_temperature;BMP_pressure;BME280_temperature;BME280_humidity;BME280_pressure;Samples;Min_cycle;Max_cycle;Signal;HPM_P1;HPM_P2
2023/03/08 00:01:26;;;;;;;0.40;0.40;;;;;;;17.19;40.18;99701.25;5036021;28;20049;-41
2023/03/08 00:03:53;;;;;;;0.40;0.40;;;;;;;17.21;40.38;99700.94;5035671;28;20377;-42
2023/03/08 00:06:19;;;;;;;0.40;0.40;;;;;;;17.19;40.25;99693.00;5036794;28;20053;-41
2023/03/08 00:08:47;;;;;;;0.40;0.40;;;;;;;17.19;40.43;99698.50;5034335;28;20136;-41
2023/03/08 00:11:12;;;;;;;0.30;0.30;;;;;;;17.19;40.38;99694.94;5036007;28;20118;-41
2023/03/08 00:13:39;;;;;;;0.40;0.40;;;;;;;17.18;40.25;99683.09;5042881;28;20438;-41
2023/03/08 00:16:07;;;;;;;0.32;0.32;;;;;;;17.19;40.56;99684.75;5054552;28;20068;-42
2023/03/08 00:18:34;;;;;;;0.40;0.40;;;;;;;17.18;40.23;99691.34;5036886;28;20049;-41
2023/03/08 00:21:01;;;;;;;0.40;0.40;;;;;;;17.19;40.21;99698.50;5035592;28;20045;-41
2023/03/08 00:23:27;;;;;;;0.40;0.40;;;;;;;17.19;40.43;99695.75;5033902;28;20049;-42
2023/03/08 00:25:53;;;;;;;0.38;0.38;;;;;;;17.18;40.08;99690.53;5035133;28;20053;-41
2023/03/08 00:28:18;;;;;;;0.40;0.40;;;;;;;17.18;40.27;99696.84;5033916;28;20275;-41
2023/03/08 00:30:44;;;;;;;0.35;0.35;;;;;;;17.18;40.20;99696.03;5039870;28;20049;-42
2023/03/08 00:33:10;;;;;;;0.35;0.35;;;;;;;17.19;40.44;99697.69;5034766;28;20715;-41
2023/03/08 00:35:35;;;;;;;0.30;0.30;;;;;;;17.18;40.52;99699.59;5042680;28;20083;-41
2023/03/08 00:38:01;;;;;;;0.32;0.32;;;;;;;17.18;40.34;99691.34;5055164;28;20048;-41
2023/03/08 00:40:26;;;;;;;0.30;0.30;;;;;;;17.16;40.32;99688.09;5055090;28;20407;-41
2023/03/08 00:42:52;;;;;;;0.40;0.40;;;;;;;17.19;40.27;99697.69;5040821;28;20079;-42
2023/03/08 00:45:18;;;;;;;0.40;0.40;;;;;;;17.17;40.24;99695.22;5040508;28;20093;-41
2023/03/08 00:47:43;;;;;;;0.35;0.35;;;;;;;17.18;40.32;99696.84;5055134;28;20407;-41
2023/03/08 00:50:10;;;;;;;0.30;0.30;;;;;;;17.19;40.38;99697.69;5055292;28;20109;-41
2023/03/08 00:52:35;;;;;;;0.30;0.30;;;;;;;17.17;40.48;99699.91;5054949;28;20094;-41
2023/03/08 00:55:01;;;;;;;0.40;0.40;;;;;;;17.18;40.46;99698.78;5054933;28;20052;-42
2023/03/08 00:57:27;;;;;;;0.40;0.40;;;;;;;17.17;40.13;99677.91;5054986;28;20051;-41
2023/03/08 00:59:52;;;;;;;0.30;0.30;;;;;;;17.17;40.49;99677.91;5055173;28;20129;-43
2023/03/08 01:02:18;;;;;;;0.30;0.30;;;;;;;17.18;40.75;99682.28;5054327;28;20048;-42
2023/03/08 01:04:44;;;;;;;0.40;0.40;;;;;;;17.17;40.53;99681.47;5054562;28;20056;-42
2023/03/08 01:07:09;;;;;;;0.30;0.30;;;;;;;17.16;40.68;99671.56;5046224;28;20230;-43
2023/03/08 01:09:35;;;;;;;0.30;0.30;;;;;;;17.17;40.60;99675.16;5034819;28;20315;-41
2023/03/08 01:12:01;;;;;;;0.40;0.40;;;;;;;17.16;40.59;99668.00;5035154;28;20074;-42
2023/03/08 01:14:26;;;;;;;0.40;0.40;;;;;;;17.16;40.43;99668.00;5034388;28;20110;-41
2023/03/08 01:16:52;;;;;;;0.40;0.40;;;;;;;17.16;40.21;99657.81;5041611;28;20523;-41
2023/03/08 01:19:18;;;;;;;0.40;0.40;;;;;;;17.16;40.60;99655.06;5055132;28;20063;-42
2023/03/08 01:21:43;;;;;;;0.30;0.30;;;;;;;17.17;40.53;99651.19;5054916;28;20051;-44
2023/03/08 01:24:09;;;;;;;0.38;0.38;;;;;;;17.17;40.59;99655.88;5054412;28;20045;-41
2023/03/08 01:26:35;;;;;;;0.40;0.40;;;;;;;17.15;40.30;99647.94;5053319;28;20049;-42
2023/03/08 01:29:00;;;;;;;0.40;0.40;;;;;;;17.16;40.38;99651.50;5054145;28;20051;-44
2023/03/08 01:31:28;;;;;;;0.40;0.40;;;;;;;17.16;40.34;99644.06;5049868;28;20512;-41
2023/03/08 01:33:54;;;;;;;0.30;0.30;;;;;;;17.16;40.59;99655.06;5051103;28;20134;-41
2023/03/08 01:36:22;;;;;;;0.30;0.30;;;;;;;17.16;40.39;99651.50;5054037;28;20056;-42
2023/03/08 01:38:48;;;;;;;0.28;0.28;;;;;;;17.17;40.29;99650.38;5052954;28;20044;-43
2023/03/08 01:41:17;;;;;;;0.30;0.30;;;;;;;17.16;40.47;99638.56;5053146;28;20048;-42
2023/03/08 01:43:43;;;;;;;0.40;0.40;;;;;;;17.16;40.43;99640.50;5046460;28;20045;-42
2023/03/08 01:52:14;;;;;;;0.30;0.30;;;;;;;17.15;40.58;99625.94;5174100;27;20502;-44
2023/03/08 01:54:46;;;;;;;0.30;0.30;;;;;;;17.16;40.41;99624.81;5136957;27;20074;-42
2023/03/08 01:57:17;;;;;;;0.38;0.38;;;;;;;17.16;40.71;99615.75;5134516;27;20103;-44
2023/03/08 01:59:44;;;;;;;0.30;0.30;;;;;;;17.16;40.58;99613.00;5152844;27;20042;-41
2023/03/08 02:02:10;;;;;;;0.30;0.30;;;;;;;17.15;40.22;99606.69;5152527;27;20504;-41
2023/03/08 02:04:36;;;;;;;0.30;0.30;;;;;;;17.16;40.36;99591.78;5152329;27;20918;-41
2023/03/08 02:07:02;;;;;;;0.30;0.30;;;;;;;17.17;40.64;99581.59;5140518;27;20042;-40
2023/03/08 02:09:28;;;;;;;0.30;0.30;;;;;;;17.16;40.45;99583.53;5152346;27;20050;-43
2023/03/08 02:11:58;;;;;;;0.30;0.30;;;;;;;17.16;40.38;99582.72;5150963;27;20466;-41
2023/03/08 02:14:24;;;;;;;0.40;0.40;;;;;;;17.16;40.43;99594.56;5152798;27;20478;-43
2023/03/08 02:16:50;;;;;;;0.40;0.40;;;;;;;17.16;40.21;99585.47;5132709;27;20465;-41
2023/03/08 02:19:24;;;;;;;0.40;0.40;;;;;;;17.15;40.49;99579.16;5152125;27;20485;-41
2023/03/08 02:21:49;;;;;;;0.40;0.40;;;;;;;17.15;40.76;99584.66;5133799;27;20042;-41
2023/03/08 02:24:18;;;;;;;0.40;0.40;;;;;;;17.15;40.55;99584.66;5151505;27;20485;-40
2023/03/08 02:26:44;;;;;;;0.40;0.40;;;;;;;17.16;40.74;99582.72;5116235;27;20074;-42
2023/03/08 02:29:10;;;;;;;0.40;0.40;;;;;;;17.15;40.68;99587.41;5152383;27;20042;-43
2023/03/08 02:31:36;;;;;;;0.40;0.40;;;;;;;17.15;40.79;99590.16;5142703;27;20468;-41
2023/03/08 02:34:01;;;;;;;0.38;0.38;;;;;;;17.16;40.48;99588.22;5089561;27;20042;-42
2023/03/08 02:36:27;;;;;;;0.30;0.30;;;;;;;17.15;40.74;99595.66;5131148;27;20043;-40
2023/03/08 02:38:53;;;;;;;0.40;0.40;;;;;;;17.16;40.48;99585.47;5111881;27;20050;-41
2023/03/08 02:41:19;;;;;;;0.32;0.32;;;;;;;17.15;40.59;99578.34;5131179;27;20043;-41
2023/03/08 02:43:44;;;;;;;0.40;0.40;;;;;;;17.15;40.75;99573.66;5131146;27;20061;-43
2023/03/08 02:46:11;;;;;;;0.30;0.30;;;;;;;17.16;40.84;99561.53;5115144;27;20398;-41
2023/03/08 02:48:37;;;;;;;0.40;0.40;;;;;;;17.15;40.74;99567.34;5110938;27;20043;-44
2023/03/08 02:51:03;;;;;;;0.30;0.30;;;;;;;17.16;40.65;99566.22;5110370;28;20058;-41
2023/03/08 02:53:28;;;;;;;0.30;0.30;;;;;;;17.15;40.47;99557.16;5110178;28;20428;-42
2023/03/08 02:55:54;;;;;;;0.40;0.40;;;;;;;17.15;40.81;99556.34;5110721;27;20305;-41
2023/03/08 02:58:20;;;;;;;0.30;0.30;;;;;;;17.15;40.78;99562.66;5109749;27;20418;-41
2023/03/08 03:00:45;;;;;;;0.30;0.30;;;;;;;17.16;40.57;99552.47;5110008;28;20071;-41
2023/03/08 03:03:11;;;;;;;0.30;0.30;;;;;;;17.15;40.72;99556.34;5096777;28;20048;-41
2023/03/08 03:05:42;;;;;;;0.30;0.30;;;;;;;17.15;40.73;99551.66;5118819;27;20479;-42
2023/03/08 03:08:08;;;;;;;0.30;0.30;;;;;;;17.15;40.64;99556.34;5087012;28;20082;-42
2023/03/08 03:10:35;;;;;;;0.30;0.30;;;;;;;17.15;40.69;99550.84;5096644;28;20108;-43
2023/03/08 03:13:00;;;;;;;0.30;0.30;;;;;;;17.15;40.92;99543.41;5077718;28;20078;-44
2023/03/08 03:15:26;;;;;;;0.30;0.30;;;;;;;17.15;40.52;99529.66;5096527;28;20044;-42
2023/03/08 03:17:52;;;;;;;0.30;0.30;;;;;;;17.15;40.48;99534.34;5077937;28;20455;-41
2023/03/08 03:20:17;;;;;;;0.40;0.40;;;;;;;17.15;40.72;99531.59;5115115;28;20047;-42
2023/03/08 03:22:43;;;;;;;0.40;0.40;;;;;;;17.14;40.73;99525.28;5116356;28;20039;-42
2023/03/08 03:25:09;;;;;;;0.38;0.38;;;;;;;17.14;40.55;99521.69;5116621;28;20480;-41
2023/03/08 03:27:35;;;;;;;0.30;0.30;;;;;;;17.15;40.75;99518.66;5116309;28;20144;-42
2023/03/08 03:30:00;;;;;;;0.30;0.30;;;;;;;17.16;40.59;99516.72;5116564;28;20444;-41
2023/03/08 03:32:26;;;;;;;0.30;0.30;;;;;;;17.16;40.75;99511.19;5116006;27;20047;-41
2023/03/08 03:34:52;;;;;;;0.30;0.30;;;;;;;17.15;40.81;99507.63;5114761;28;20039;-43
2023/03/08 03:37:18;;;;;;;0.30;0.30;;;;;;;17.15;40.64;99515.09;5107538;27;20482;-41
2023/03/08 03:39:43;;;;;;;0.30;0.30;;;;;;;17.16;40.87;99519.47;5095804;28;20078;-41
2023/03/08 03:42:09;;;;;;;0.20;0.20;;;;;;;17.16;40.66;99519.47;5095531;28;20075;-41
2023/03/08 03:44:35;;;;;;;0.30;0.30;;;;;;;17.14;40.86;99514.28;5095848;28;20101;-41
2023/03/08 03:47:00;;;;;;;0.30;0.30;;;;;;;17.15;40.68;99501.31;5099558;28;20051;-40
2023/03/08 03:49:26;;;;;;;0.30;0.30;;;;;;;17.14;40.82;99497.75;5116001;28;20062;-41
2023/03/08 03:51:52;;;;;;;0.30;0.30;;;;;;;17.15;40.74;99506.84;5116394;27;20116;-42
2023/03/08 03:54:18;;;;;;;0.30;0.30;;;;;;;17.15;40.51;99499.38;5115679;27;20047;-42
2023/03/08 03:56:43;;;;;;;0.35;0.35;;;;;;;17.13;40.79;99493.34;5098818;27;20086;-41
2023/03/08 03:59:09;;;;;;;0.40;0.40;;;;;;;17.14;40.94;99495.00;5095801;28;20047;-43
2023/03/08 04:01:34;;;;;;;0.40;0.40;;;;;;;17.15;40.82;99491.13;5094749;28;20048;-43
2023/03/08 04:04:00;;;;;;;0.40;0.40;;;;;;;17.13;40.45;99482.34;5098320;27;20043;-41
2023/03/08 04:06:28;;;;;;;0.30;0.30;;;;;;;17.14;40.73;99492.25;5115507;28;20082;-42
2023/03/08 04:08:56;;;;;;;0.40;0.40;;;;;;;17.14;40.66;99480.41;5115689;28;20513;-42
2023/03/08 04:11:24;;;;;;;0.40;0.40;;;;;;;17.15;40.64;99477.38;5115690;28;20055;-41
2023/03/08 04:13:50;;;;;;;0.30;0.30;;;;;;;17.14;40.38;99473.00;5095937;28;20043;-41
2023/03/08 04:16:25;;;;;;;0.40;0.40;;;;;;;17.14;40.87;99470.25;5115569;28;20051;-41
2023/03/08 04:18:56;;;;;;;0.20;0.20;;;;;;;17.15;40.99;99471.88;5116157;28;20163;-41
2023/03/08 04:21:22;;;;;;;0.30;0.30;;;;;;;17.15;40.83;99468.31;5104617;28;20543;-41
2023/03/08 04:23:48;;;;;;;0.30;0.30;;;;;;;17.13;40.62;99465.84;5113601;28;20039;-43
2023/03/08 04:26:14;;;;;;;0.30;0.30;;;;;;;17.14;40.50;99462.00;5087363;28;20051;-41
2023/03/08 04:28:40;;;;;;;0.30;0.30;;;;;;;17.13;40.65;99454.84;5097373;28;20135;-41
2023/03/08 04:31:23;;;;;;;0.35;0.35;;;;;;;17.14;41.00;99447.41;5114694;27;20418;-41
2023/03/08 04:33:50;;;;;;;0.32;0.32;;;;;;;17.14;40.78;99445.50;5096998;28;20088;-42
2023/03/08 04:36:16;;;;;;;0.30;0.30;;;;;;;17.14;40.79;99441.91;5102887;27;20498;-42
2023/03/08 04:38:43;;;;;;;0.30;0.30;;;;;;;17.14;40.84;99442.75;5096893;28;20051;-40
2023/03/08 04:41:11;;;;;;;0.30;0.30;;;;;;;17.14;40.95;99441.91;5115009;28;20055;-44
2023/03/08 04:43:38;;;;;;;0.30;0.30;;;;;;;17.13;40.56;99435.59;5097397;28;20292;-41
2023/03/08 04:46:05;;;;;;;0.40;0.40;;;;;;;17.14;40.77;99428.16;5096920;28;20516;-42
2023/03/08 04:48:31;;;;;;;0.30;0.30;;;;;;;17.14;40.99;99422.66;5115472;28;20047;-43
2023/03/08 04:50:59;;;;;;;0.40;0.40;;;;;;;17.14;40.78;99419.91;5099939;28;20067;-43
2023/03/08 04:53:25;;;;;;;0.30;0.30;;;;;;;17.13;40.62;99413.59;5115230;28;20084;-41
2023/03/08 04:55:52;;;;;;;0.40;0.40;;;;;;;17.14;40.95;99408.91;5114974;28;20081;-41
2023/03/08 04:58:18;;;;;;;0.40;0.40;;;;;;;17.13;40.73;99405.34;5096592;28;20071;-42
2023/03/08 05:00:44;;;;;;;0.40;0.40;;;;;;;17.13;40.94;99399.81;5096982;28;20058;-43
2023/03/08 05:03:09;;;;;;;0.30;0.30;;;;;;;17.14;40.93;99395.13;5096322;28;20051;-43
2023/03/08 05:05:35;;;;;;;0.40;0.40;;;;;;;17.14;40.60;99386.88;5114825;28;20383;-40
2023/03/08 05:08:04;;;;;;;0.40;0.40;;;;;;;17.15;40.93;99394.03;5114681;28;20051;-43
2023/03/08 05:10:30;;;;;;;;;;;;;;;17.14;40.99;99384.13;5115754;28;20128;-41
2023/03/08 05:12:55;;;;;;;0.40;0.40;;;;;;;17.13;40.54;99377.00;5115055;28;19923;-44
2023/03/08 05:15:24;;;;;;;0.40;0.40;;;;;;;17.13;40.86;99374.25;5114766;28;20536;-41
2023/03/08 05:17:50;;;;;;;0.40;0.40;;;;;;;17.13;40.69;99375.06;5114674;28;20051;-42
2023/03/08 05:20:16;;;;;;;0.35;0.35;;;;;;;17.12;40.88;99362.44;5115125;28;20402;-42
2023/03/08 05:22:42;;;;;;;0.30;0.30;;;;;;;17.12;40.95;99354.19;5113732;28;20098;-42
2023/03/08 05:25:24;;;;;;;0.40;0.40;;;;;;;17.13;40.83;99349.50;5114029;27;20156;-41
2023/03/08 05:27:49;;;;;;;0.40;0.40;;;;;;;17.14;40.65;99348.38;5114775;28;20479;-42
2023/03/08 05:30:15;;;;;;;0.30;0.30;;;;;;;17.14;40.66;99351.13;5114604;28;20091;-41
2023/03/08 05:32:41;;;;;;;0.30;0.30;;;;;;;17.13;41.03;99344.81;5114123;27;20143;-41
2023/03/08 05:35:08;;;;;;;0.40;0.40;;;;;;;17.13;40.82;99336.56;5110733;27;20040;-41
2023/03/08 05:37:33;;;;;;;0.40;0.40;;;;;;;17.12;40.78;99343.19;5093318;28;20047;-42
2023/03/08 05:39:59;;;;;;;0.40;0.40;;;;;;;17.13;40.87;99338.50;5111806;28;20043;-41
2023/03/08 05:42:26;;;;;;;0.40;0.40;;;;;;;17.12;40.85;99334.94;5114364;27;20269;-41
2023/03/08 05:44:52;;;;;;;0.20;0.20;;;;;;;17.13;40.63;99322.81;5106037;27;20120;-41
2023/03/08 05:47:17;;;;;;;0.40;0.40;;;;;;;17.12;40.73;99320.38;5103432;28;20530;-41
2023/03/08 05:49:43;;;;;;;0.30;0.30;;;;;;;17.11;40.95;99308.56;5111336;28;20051;-43
2023/03/08 05:52:08;;;;;;;0.30;0.30;;;;;;;17.11;40.87;99303.06;5110663;28;20727;-42
2023/03/08 05:54:34;;;;;;;0.40;0.40;;;;;;;17.11;40.94;99300.31;5112113;28;20464;-41
2023/03/08 05:57:00;;;;;;;0.32;0.32;;;;;;;17.12;40.96;99290.13;5102543;28;20066;-41
2023/03/08 05:59:26;;;;;;;0.40;0.40;;;;;;;17.12;40.92;99290.94;5114226;28;20047;-43
2023/03/08 06:01:52;;;;;;;0.40;0.40;;;;;;;17.13;40.94;99275.25;5111396;28;20156;-42
2023/03/08 06:04:17;;;;;;;0.32;0.32;;;;;;;17.13;40.81;99272.50;5106199;28;20039;-41
2023/03/08 06:06:43;;;;;;;0.35;0.35;;;;;;;17.13;41.07;99272.50;5110311;27;20053;-41
2023/03/08 06:09:09;;;;;;;0.30;0.30;;;;;;;17.12;41.23;99270.88;5101853;28;20402;-41
2023/03/08 06:11:34;;;;;;;0.40;0.40;;;;;;;17.11;40.88;99256.31;5107657;28;20054;-41
2023/03/08 06:14:00;;;;;;;0.40;0.40;;;;;;;17.11;41.06;99252.75;5110236;28;20040;-45
2023/03/08 06:16:26;;;;;;;0.40;0.40;;;;;;;17.12;41.22;99251.63;5111459;28;20058;-41
2023/03/08 06:18:51;;;;;;;0.40;0.40;;;;;;;17.12;40.97;99240.59;5101215;28;20066;-42
2023/03/08 06:21:18;;;;;;;0.30;0.30;;;;;;;17.12;40.77;99237.84;5097941;28;20468;-41
2023/03/08 06:23:45;;;;;;;0.40;0.40;;;;;;;17.12;41.24;99229.59;5113911;28;20253;-43
2023/03/08 06:26:11;;;;;;;0.40;0.40;;;;;;;17.10;41.03;99224.41;5093776;28;20047;-43
2023/03/08 06:28:39;;;;;;;0.38;0.38;;;;;;;17.11;40.99;99212.28;5083653;28;20156;-43
2023/03/08 06:31:05;;;;;;;0.40;0.40;;;;;;;17.10;41.22;99205.16;5074959;28;20097;-43
2023/03/08 06:33:32;;;;;;;0.40;0.40;;;;;;;17.12;41.11;99210.34;5089982;28;20044;-41
2023/03/08 06:36:00;;;;;;;0.40;0.40;;;;;;;17.11;41.14;99206.78;5083156;28;20055;-41
2023/03/08 06:38:27;;;;;;;0.30;0.30;;;;;;;17.11;40.97;99203.22;5102384;28;20044;-42
2023/03/08 06:40:55;;;;;;;0.40;0.40;;;;;;;17.10;41.39;99202.41;5087803;28;20055;-41
2023/03/08 06:43:21;;;;;;;0.32;0.32;;;;;;;17.12;41.12;99202.09;5102583;28;20241;-42
2023/03/08 06:45:46;;;;;;;0.40;0.40;;;;;;;17.11;41.11;99200.47;5085908;28;20105;-41
2023/03/08 06:48:13;;;;;;;0.40;0.40;;;;;;;17.11;41.06;99200.47;5103975;28;20043;-44
2023/03/08 06:50:38;;;;;;;0.40;0.40;;;;;;;17.10;41.18;99188.66;5087110;28;20495;-45
2023/03/08 06:53:04;;;;;;;0.40;0.40;;;;;;;17.12;41.17;99188.34;5101873;28;20043;-43
2023/03/08 06:55:30;;;;;;;0.40;0.40;;;;;;;17.11;41.31;99186.72;5090519;28;20379;-43
2023/03/08 06:57:55;;;;;;;0.40;0.40;;;;;;;17.11;41.29;99183.97;5081014;28;20597;-44
2023/03/08 07:00:21;;;;;;;0.40;0.40;;;;;;;17.11;41.46;99186.72;5098572;28;20905;-43
2023/03/08 07:02:48;;;;;;;0.40;0.40;;;;;;;17.10;41.33;99177.66;5088914;28;20054;-42
2023/03/08 07:05:14;;;;;;;0.40;0.40;;;;;;;17.14;41.71;99177.84;5070184;28;20051;-45
2023/03/08 07:07:41;;;;;;;0.40;0.40;;;;;;;17.19;42.06;99183.25;5075692;28;20067;-42
2023/03/08 07:10:10;;;;;;;0.40;0.40;;;;;;;17.16;42.46;99181.91;5067846;28;20531;-41
2023/03/08 07:12:39;;;;;;;0.40;0.40;;;;;;;17.15;42.05;99176.75;5085477;28;20039;-41
2023/03/08 07:15:06;;;;;;;0.35;0.35;;;;;;;17.14;42.17;99175.94;5100938;28;20536;-42
2023/03/08 07:17:33;;;;;;;0.40;0.40;;;;;;;17.13;42.09;99174.28;5099361;28;20082;-41
2023/03/08 07:19:59;;;;;;;0.30;0.30;;;;;;;17.13;42.07;99168.78;5099051;28;20163;-43
2023/03/08 07:22:25;;;;;;;0.40;0.40;;;;;;;17.13;42.08;99166.03;5104369;28;20602;-41
2023/03/08 07:24:50;;;;;;;0.30;0.30;;;;;;;17.13;42.16;99168.78;5103377;28;20051;-41
2023/03/08 07:27:16;;;;;;;0.40;0.40;;;;;;;17.12;42.07;99164.41;5101697;28;20048;-42
2023/03/08 07:29:42;;;;;;;0.40;0.40;;;;;;;17.14;42.12;99158.59;5092294;28;20196;-41
2023/03/08 07:32:07;;;;;;;0.40;0.40;;;;;;;17.14;42.88;99145.66;5097180;27;20047;-40
2023/03/08 07:34:33;;;;;;;0.40;0.40;;;;;;;17.15;42.94;99149.22;5099111;27;20479;-41
2023/03/08 07:36:59;;;;;;;0.30;0.30;;;;;;;17.15;43.27;99150.03;5089523;27;20035;-40
2023/03/08 07:39:24;;;;;;;0.40;0.40;;;;;;;17.18;42.89;99143.09;5095383;27;20338;-42
2023/03/08 07:41:50;;;;;;;0.30;0.30;;;;;;;17.23;44.18;99134.75;5093365;28;20163;-41
2023/03/08 07:44:16;;;;;;;0.40;0.40;;;;;;;17.22;43.07;99127.59;5100317;27;20479;-41
2023/03/08 07:46:41;;;;;;;0.40;0.40;;;;;;;17.21;43.11;99125.97;5097448;27;20055;-43
2023/03/08 07:49:09;;;;;;;0.40;0.40;;;;;;;17.20;43.34;99116.91;5091366;27;20139;-40
2023/03/08 07:58:38;;;;;;;0.40;0.40;;;;;;;17.20;43.62;99107.84;5093575;27;20054;-41
2023/03/08 08:01:09;;;;;;;0.40;0.40;;;;;;;17.20;43.31;99094.91;5085970;27;20043;-41
2023/03/08 08:03:36;;;;;;;0.40;0.40;;;;;;;17.22;42.96;99100.09;5087999;27;20039;-41
2023/03/08 08:06:03;;;;;;;0.30;0.30;;;;;;;17.22;43.27;99103.63;5084849;27;20058;-40
2023/03/08 08:08:29;;;;;;;0.40;0.40;;;;;;;17.20;43.09;99100.41;5082701;28;20063;-42
2023/03/08 08:10:54;;;;;;;0.40;0.40;;;;;;;17.20;43.24;99088.59;5085756;28;20078;-41
2023/03/08 08:13:20;;;;;;;0.40;0.40;;;;;;;17.19;43.10;99090.53;5074912;28;20043;-45
2023/03/08 08:15:46;;;;;;;0.40;0.40;;;;;;;17.19;42.83;99092.47;5084313;27;20055;-41
2023/03/08 08:18:11;;;;;;;0.30;0.30;;;;;;;17.22;43.83;99083.56;5098996;28;20091;-45
2023/03/08 08:20:37;;;;;;;0.30;0.30;;;;;;;17.28;43.67;99072.16;5103523;27;20391;-54
2023/03/08 08:23:05;;;;;;;0.40;0.40;;;;;;;17.34;44.04;99072.00;5087707;28;20051;-48
2023/03/08 08:25:31;;;;;;;0.40;0.40;;;;;;;17.33;44.48;99071.22;5073580;28;20063;-47
2023/03/08 08:27:56;;;;;;;0.30;0.30;;;;;;;17.33;44.21;99067.66;5100748;27;20040;-47
2023/03/08 08:30:22;;;;;;;0.40;0.40;;;;;;;17.31;44.43;99054.19;5074159;28;20047;-48
2023/03/08 08:32:48;;;;;;;0.30;0.30;;;;;;;17.32;44.55;99047.56;5088815;28;20516;-49
2023/03/08 08:35:14;;;;;;;0.30;0.30;;;;;;;17.32;44.49;99050.31;5096574;28;20046;-49
2023/03/08 08:37:39;;;;;;;0.40;0.40;;;;;;;17.30;44.12;99045.13;5092843;27;20328;-49
2023/03/08 08:40:06;;;;;;;0.30;0.30;;;;;;;17.30;43.98;99045.13;5085142;28;20423;-49
2023/03/08 08:42:32;;;;;;;0.40;0.40;;;;;;;17.30;44.22;99031.38;5099318;27;20572;-48
2023/03/08 08:44:58;;;;;;;0.30;0.30;;;;;;;17.29;43.87;99035.25;5094426;27;20047;-48
2023/03/08 08:47:23;;;;;;;0.30;0.30;;;;;;;17.30;43.84;99027.81;5099149;27;20055;-48
2023/03/08 08:49:50;;;;;;;0.40;0.40;;;;;;;17.29;43.81;99023.44;5096448;27;20051;-48
2023/03/08 08:52:16;;;;;;;0.30;0.30;;;;;;;17.28;44.00;99019.88;5098155;27;21025;-47
2023/03/08 08:54:41;;;;;;;0.40;0.40;;;;;;;17.29;43.99;99018.75;5091537;28;20055;-50
2023/03/08 08:57:07;;;;;;;0.32;0.32;;;;;;;17.30;43.88;99012.09;5095935;28;20087;-47
2023/03/08 08:59:33;;;;;;;0.30;0.30;;;;;;;17.30;43.77;98997.53;5098616;27;20050;-49
2023/03/08 09:01:59;;;;;;;0.30;0.30;;;;;;;17.29;43.73;98993.97;5104716;27;20046;-47
2023/03/08 09:04:24;;;;;;;0.30;0.30;;;;;;;17.29;43.52;98987.66;5100009;27;20063;-48
2023/03/08 09:06:52;;;;;;;0.30;0.30;;;;;;;17.30;43.60;98986.53;5084094;27;20458;-48
2023/03/08 09:09:18;;;;;;;0.30;0.30;;;;;;;17.30;43.63;98994.78;5089104;28;20051;-51
2023/03/08 09:11:46;;;;;;;0.30;0.30;;;;;;;17.31;43.50;98990.91;5090885;28;20316;-50
2023/03/08 09:14:20;;;;;;;0.40;0.40;;;;;;;17.31;43.44;98999.16;5070330;28;20043;-50
2023/03/08 09:16:46;;;;;;;0.30;0.30;;;;;;;17.32;43.57;98989.00;5072739;27;20050;-50
2023/03/08 09:19:12;;;;;;;0.40;0.40;;;;;;;17.37;44.10;98989.66;5072641;27;20046;-53
2023/03/08 09:21:37;;;;;;;0.30;0.30;;;;;;;17.33;44.89;98990.59;5094995;28;20143;-51
2023/03/08 09:24:05;;;;;;;0.30;0.30;;;;;;;17.35;44.43;98975.38;5090948;27;20043;-51
2023/03/08 09:26:31;;;;;;;0.30;0.30;;;;;;;17.36;44.13;98976.19;5083472;28;20050;-50
2023/03/08 09:29:03;;;;;;;0.40;0.40;;;;;;;17.35;43.89;98972.63;5094084;28;20104;-48
2023/03/08 09:31:29;;;;;;;0.30;0.30;;;;;;;17.12;45.11;98971.88;5061412;28;20444;-51
2023/03/08 09:33:55;;;;;;;0.30;0.30;;;;;;;17.29;44.59;98965.66;5092828;28;20078;-50
2023/03/08 09:36:21;;;;;;;0.30;0.30;;;;;;;17.33;44.86;98963.09;5058469;28;20067;-51
2023/03/08 09:38:48;;;;;;;0.35;0.35;;;;;;;17.34;44.44;98962.78;5072302;28;20077;-51
2023/03/08 09:41:27;;;;;;;0.40;0.40;;;;;;;17.37;43.97;98964.09;5071046;28;20035;-50
2023/03/08 09:44:33;;;;;;;0.30;0.30;;;;;;;17.38;43.91;98965.72;5093962;28;20567;-50
2023/03/08 09:47:05;;;;;;;0.30;0.30;;;;;;;17.37;43.97;98964.09;5071784;28;20071;-51
2023/03/08 09:49:33;;;;;;;0.30;0.30;;;;;;;17.37;44.25;98966.84;5075948;28;20062;-50
2023/03/08 09:52:05;;;;;;;0.30;0.30;;;;;;;17.38;43.75;98965.72;5082554;28;20226;-49
2023/03/08 09:54:32;;;;;;;0.40;0.40;;;;;;;17.37;43.59;98970.41;5095302;27;20147;-50
2023/03/08 09:57:00;;;;;;;0.35;0.35;;;;;;;17.37;43.84;98964.91;5096987;28;20040;-48
2023/03/08 09:59:33;;;;;;;0.20;0.20;;;;;;;17.38;43.94;98950.00;5098642;28;20159;-52
2023/03/08 10:02:05;;;;;;;0.20;0.20;;;;;;;17.38;43.59;98947.25;5085086;28;20510;-51
2023/03/08 10:07:34;;;;;;;0.30;0.30;;;;;;;17.40;44.23;98949.69;5160675;27;20120;-51
2023/03/08 10:10:12;;;;;;;0.30;0.30;;;;;;;17.41;44.83;98949.38;5138722;27;20038;-51
2023/03/08 10:13:03;;;;;;;0.30;0.30;;;;;;;17.41;44.88;98943.06;5107657;27;20054;-51
2023/03/08 10:15:30;;;;;;;0.40;0.40;;;;;;;17.41;44.35;98935.63;5102731;27;20085;-51
2023/03/08 10:18:25;;;;;;;0.30;0.30;;;;;;;17.41;45.24;98938.38;5133181;27;20141;-52
2023/03/08 10:20:51;;;;;;;0.40;0.40;;;;;;;17.43;44.95;98929.78;5115771;27;20057;-51
2023/03/08 10:23:19;;;;;;;0.35;0.35;;;;;;;17.42;44.64;98934.50;5135104;27;20047;-51
2023/03/08 10:25:46;;;;;;;0.30;0.30;;;;;;;17.43;44.41;98938.03;5130599;27;20312;-51
2023/03/08 10:28:16;;;;;;;0.40;0.40;;;;;;;17.41;44.62;98941.13;5109110;27;20074;-53
2023/03/08 10:30:47;;;;;;;0.30;0.30;;;;;;;17.43;44.34;98935.28;5106494;27;20034;-51
2023/03/08 10:33:14;;;;;;;0.38;0.38;;;;;;;17.42;44.26;98934.50;5108463;27;20086;-52
2023/03/08 10:36:04;;;;;;;0.40;0.40;;;;;;;17.44;44.33;98928.66;5125296;27;20050;-50
2023/03/08 10:38:33;;;;;;;0.30;0.30;;;;;;;17.45;45.17;98925.59;5108755;27;20046;-52
2023/03/08 10:41:02;;;;;;;0.40;0.40;;;;;;;17.46;45.24;98907.16;5105977;27;20544;-51
2023/03/08 10:43:29;;;;;;;;;;;;;;;17.46;45.08;98912.66;5135789;27;20203;-52
2023/03/08 10:46:00;;;;;;;0.40;0.40;;;;;;;17.45;45.17;98905.53;5127678;27;19938;-53
2023/03/08 10:48:26;;;;;;;0.40;0.40;;;;;;;17.43;44.96;98885.75;5126055;27;20050;-52
2023/03/08 10:51:01;;;;;;;0.40;0.40;;;;;;;17.45;45.04;98883.53;5131740;27;20047;-52
2023/03/08 10:53:28;;;;;;;0.30;0.30;;;;;;;17.45;44.72;98883.53;5105589;27;20042;-51
2023/03/08 10:55:55;;;;;;;0.40;0.40;;;;;;;17.45;44.62;98872.50;5122229;27;20405;-52
2023/03/08 10:58:31;;;;;;;0.30;0.30;;;;;;;17.45;44.69;98891.78;5116222;27;20038;-52
2023/03/08 11:00:59;;;;;;;0.30;0.30;;;;;;;17.45;44.41;98898.09;5146454;27;20038;-52
2023/03/08 11:03:25;;;;;;;0.30;0.30;;;;;;;17.45;44.36;98889.84;5131879;27;20050;-51
2023/03/08 11:05:56;;;;;;;0.30;0.30;;;;;;;17.45;44.27;98876.06;5137716;27;20035;-51
2023/03/08 11:08:26;;;;;;;0.32;0.32;;;;;;;17.47;44.30;98879.31;5105750;27;20434;-51
2023/03/08 11:10:59;;;;;;;0.30;0.30;;;;;;;17.46;44.15;98882.38;5130509;27;20042;-51
2023/03/08 11:13:30;;;;;;;0.30;0.30;;;;;;;17.47;44.21;98887.56;5122418;27;20236;-52
2023/03/08 11:16:34;;;;;;;0.40;0.40;;;;;;;17.47;44.20;98897.75;5139689;27;20130;-52
2023/03/08 11:19:06;;;;;;;0.40;0.40;;;;;;;17.46;44.16;98891.44;5096617;27;20039;-52
2023/03/08 11:22:02;;;;;;;0.30;0.30;;;;;;;17.47;44.18;98884.81;5102609;27;20047;-51
2023/03/08 11:27:53;;;;;;;0.30;0.30;;;;;;;17.52;44.18;98881.09;5139118;27;20387;-53
2023/03/08 11:30:29;;;;;;;0.30;0.30;;;;;;;17.52;43.94;98870.09;5090335;27;20163;-53
2023/03/08 11:33:21;;;;;;;0.30;0.30;;;;;;;17.51;43.96;98862.97;5120297;27;20043;-54
2023/03/08 11:35:56;;;;;;;0.30;0.30;;;;;;;17.49;44.28;98871.56;5104899;27;20442;-54
2023/03/08 11:38:26;;;;;;;0.30;0.30;;;;;;;17.51;44.04;98874.78;5122099;27;20038;-51
2023/03/08 11:41:22;;;;;;;0.30;0.30;;;;;;;17.50;43.80;98873.16;5090003;27;20119;-52
2023/03/08 11:44:11;;;;;;;0.30;0.30;;;;;;;17.49;46.00;98887.25;5096452;27;20323;-53
2023/03/08 11:47:17;;;;;;;0.32;0.32;;;;;;;17.49;44.67;98888.06;5099053;27;20128;-53
2023/03/08 11:50:08;;;;;;;0.35;0.35;;;;;;;17.51;45.02;98876.72;5085158;27;20547;-53
2023/03/08 11:52:47;;;;;;;0.40;0.40;;;;;;;17.51;45.24;98866.53;5117493;27;20506;-52
2023/03/08 11:55:31;;;;;;;0.30;0.30;;;;;;;17.51;44.55;98872.03;5097751;27;20383;-54
2023/03/08 11:58:08;;;;;;;0.30;0.30;;;;;;;17.51;44.45;98868.47;5116643;27;20051;-55